sensor_id;sensor_type;location;lat;lon;timestamp;temperature;humidity
52435;DHT22;38354;52.892;6.148;2023-08-06T04:03:00;13.70;99.90
52435;DHT22;38354;52.892;6.148;2023-08-06T04:05:25;13.70;99.90
52435;DHT22;38354;52.892;6.148;2023-08-06T04:07:51;13.70;99.90
52435;DHT22;38354;52.892;6.148;2023-08-06T04:10:16;13.80;99.90
52435;DHT22;38354;52.892;6.148;2023-08-06T04:12:42;13.70;99.90
52435;DHT22;38354;52.892;6.148;2023-08-06T04:15:08;13.70;99.90
52435;DHT22;38354;52.892;6.148;2023-08-06T04:17:33;13.80;99.90
52435;DHT22;38354;52.892;6.148;2023-08-06T04:19:59;13.70;99.90
52435;DHT22;38354;52.892;6.148;2023-08-06T04:22:25;13.70;99.90
52435;DHT22;38354;52.892;6.148;2023-08-06T04:24:51;13.80;99.90
52435;DHT22;38354;52.892;6.148;2023-08-06T04:27:17;13.80;99.90
52435;DHT22;38354;52.892;6.148;2023-08-06T04:29:43;13.80;99.90
52435;DHT22;38354;52.892;6.148;2023-08-06T04:32:09;13.80;99.90
52435;DHT22;38354;52.892;6.148;2023-08-06T04:34:35;13.80;99.90
52435;DHT22;38354;52.892;6.148;2023-08-06T04:37:01;13.80;99.90
52435;DHT22;38354;52.892;6.148;2023-08-06T04:39:27;13.80;99.90
52435;DHT22;38354;52.892;6.148;2023-08-06T04:41:52;13.80;99.90
52435;DHT22;38354;52.892;6.148;2023-08-06T04:44:18;13.80;99.90
52435;DHT22;38354;52.892;6.148;2023-08-06T04:46:44;13.90;99.90
52435;DHT22;38354;52.892;6.148;2023-08-06T04:49:09;13.80;99.90
52435;DHT22;38354;52.892;6.148;2023-08-06T04:51:35;13.80;99.90
52435;DHT22;38354;52.892;6.148;2023-08-06T04:54:01;13.80;99.90
52435;DHT22;38354;52.892;6.148;2023-08-06T04:56:26;13.80;99.90
52435;DHT22;38354;52.892;6.148;2023-08-06T04:58:52;13.80;99.90
52435;DHT22;38354;52.892;6.148;2023-08-06T05:01:18;13.80;99.90
52435;DHT22;38354;52.892;6.148;2023-08-06T05:03:44;13.90;99.90
52435;DHT22;38354;52.892;6.148;2023-08-06T05:06:09;13.90;99.90
52435;DHT22;38354;52.892;6.148;2023-08-06T05:08:36;13.90;99.90
52435;DHT22;38354;52.892;6.148;2023-08-06T05:11:01;13.90;99.90
52435;DHT22;38354;52.892;6.148;2023-08-06T05:13:27;13.90;99.90
52435;DHT22;38354;52.892;6.148;2023-08-06T05:15:56;13.90;99.90
52435;DHT22;38354;52.892;6.148;2023-08-06T05:18:22;13.90;99.90
52435;DHT22;38354;52.892;6.148;2023-08-06T05:20:47;14.00;99.90
52435;DHT22;38354;52.892;6.148;2023-08-06T05:23:13;13.90;99.90
52435;DHT22;38354;52.892;6.148;2023-08-06T05:25:39;14.00;99.90
52435;DHT22;38354;52.892;6.148;2023-08-06T05:28:04;14.00;99.90
52435;DHT22;38354;52.892;6.148;2023-08-06T05:30:30;14.00;99.90
52435;DHT22;38354;52.892;6.148;2023-08-06T05:32:55;14.00;99.90
52435;DHT22;38354;52.892;6.148;2023-08-06T05:35:21;14.00;99.90
52435;DHT22;38354;52.892;6.148;2023-08-06T05:37:47;14.10;99.90
52435;DHT22;38354;52.892;6.148;2023-08-06T05:40:13;14.10;99.90
52435;DHT22;38354;52.892;6.148;2023-08-06T05:42:39;14.10;99.90
52435;DHT22;38354;52.892;6.148;2023-08-06T05:45:05;14.10;99.90
52435;DHT22;38354;52.892;6.148;2023-08-06T05:47:31;14.10;99.90
52435;DHT22;38354;52.892;6.148;2023-08-06T05:49:57;14.20;99.90
52435;DHT22;38354;52.892;6.148;2023-08-06T05:52:22;14.10;99.90
52435;DHT22;38354;52.892;6.148;2023-08-06T05:54:48;14.20;99.90
52435;DHT22;38354;52.892;6.148;2023-08-06T05:57:13;14.20;99.90
52435;DHT22;38354;52.892;6.148;2023-08-06T05:59:40;14.20;99.90
52435;DHT22;38354;52.892;6.148;2023-08-06T06:02:05;14.20;99.90
52435;DHT22;38354;52.892;6.148;2023-08-06T06:04:31;14.30;99.90
52435;DHT22;38354;52.892;6.148;2023-08-06T06:06:57;14.30;99.90
52435;DHT22;38354;52.892;6.148;2023-08-06T06:09:22;14.30;99.90
52435;DHT22;38354;52.892;6.148;2023-08-06T06:11:48;14.30;99.90
52435;DHT22;38354;52.892;6.148;2023-08-06T06:14:18;14.40;99.90
52435;DHT22;38354;52.892;6.148;2023-08-06T06:16:44;14.40;99.90
52435;DHT22;38354;52.892;6.148;2023-08-06T06:19:10;14.40;99.90
52435;DHT22;38354;52.892;6.148;2023-08-06T06:21:36;14.50;99.90
52435;DHT22;38354;52.892;6.148;2023-08-06T06:24:03;14.50;99.90
52435;DHT22;38354;52.892;6.148;2023-08-06T06:26:29;14.50;99.90
52435;DHT22;38354;52.892;6.148;2023-08-06T06:28:55;14.60;99.90
52435;DHT22;38354;52.892;6.148;2023-08-06T06:31:20;14.60;99.90
52435;DHT22;38354;52.892;6.148;2023-08-06T06:33:46;14.60;99.90
52435;DHT22;38354;52.892;6.148;2023-08-06T06:36:12;14.60;99.90
52435;DHT22;38354;52.892;6.148;2023-08-06T06:38:37;14.70;99.90
52435;DHT22;38354;52.892;6.148;2023-08-06T06:41:04;14.70;99.90
52435;DHT22;38354;52.892;6.148;2023-08-06T06:43:29;14.80;99.90
52435;DHT22;38354;52.892;6.148;2023-08-06T06:45:56;14.80;99.90
52435;DHT22;38354;52.892;6.148;2023-08-06T06:48:23;14.80;99.90
52435;DHT22;38354;52.892;6.148;2023-08-06T06:50:48;14.80;99.90
52435;DHT22;38354;52.892;6.148;2023-08-06T06:53:14;14.90;99.90
52435;DHT22;38354;52.892;6.148;2023-08-06T06:55:39;14.80;99.90
52435;DHT22;38354;52.892;6.148;2023-08-06T06:58:05;14.90;99.90
52435;DHT22;38354;52.892;6.148;2023-08-06T07:00:31;15.00;99.90
52435;DHT22;38354;52.892;6.148;2023-08-06T07:02:56;15.10;99.90
52435;DHT22;38354;52.892;6.148;2023-08-06T07:05:22;15.10;99.90
52435;DHT22;38354;52.892;6.148;2023-08-06T07:07:47;15.10;99.90
52435;DHT22;38354;52.892;6.148;2023-08-06T07:10:13;15.20;99.90
52435;DHT22;38354;52.892;6.148;2023-08-06T07:12:38;15.20;99.90
52435;DHT22;38354;52.892;6.148;2023-08-06T07:15:05;15.20;99.90
52435;DHT22;38354;52.892;6.148;2023-08-06T07:17:31;15.30;99.90
52435;DHT22;38354;52.892;6.148;2023-08-06T07:19:57;15.30;99.90
52435;DHT22;38354;52.892;6.148;2023-08-06T07:22:22;15.30;99.90
52435;DHT22;38354;52.892;6.148;2023-08-06T07:24:48;15.30;99.90
52435;DHT22;38354;52.892;6.148;2023-08-06T07:27:13;15.30;99.90
52435;DHT22;38354;52.892;6.148;2023-08-06T07:29:39;15.30;99.90
52435;DHT22;38354;52.892;6.148;2023-08-06T07:32:06;15.30;99.90
52435;DHT22;38354;52.892;6.148;2023-08-06T07:34:31;15.30;99.90
52435;DHT22;38354;52.892;6.148;2023-08-06T07:36:57;15.30;99.90
52435;DHT22;38354;52.892;6.148;2023-08-06T07:39:23;15.40;99.90
52435;DHT22;38354;52.892;6.148;2023-08-06T07:41:49;15.40;99.90
52435;DHT22;38354;52.892;6.148;2023-08-06T07:44:14;15.40;99.90
52435;DHT22;38354;52.892;6.148;2023-08-06T07:46:40;15.40;99.90
52435;DHT22;38354;52.892;6.148;2023-08-06T07:49:06;15.40;99.90
52435;DHT22;38354;52.892;6.148;2023-08-06T07:51:31;15.40;99.90
52435;DHT22;38354;52.892;6.148;2023-08-06T07:53:57;15.50;99.90
52435;DHT22;38354;52.892;6.148;2023-08-06T07:56:23;15.50;99.90
52435;DHT22;38354;52.892;6.148;2023-08-06T07:58:48;15.50;99.90
52435;DHT22;38354;52.892;6.148;2023-08-06T08:01:14;15.60;99.90
52435;DHT22;38354;52.892;6.148;2023-08-06T08:03:39;15.50;99.90
52435;DHT22;38354;52.892;6.148;2023-08-06T08:06:05;15.60;99.90
52435;DHT22;38354;52.892;6.148;2023-08-06T08:08:30;15.60;99.90
52435;DHT22;38354;52.892;6.148;2023-08-06T08:10:56;15.60;99.90
52435;DHT22;38354;52.892;6.148;2023-08-06T08:13:24;15.60;99.90
52435;DHT22;38354;52.892;6.148;2023-08-06T08:15:49;15.60;99.90
52435;DHT22;38354;52.892;6.148;2023-08-06T08:18:15;15.60;99.90
52435;DHT22;38354;52.892;6.148;2023-08-06T08:20:40;15.60;99.90
52435;DHT22;38354;52.892;6.148;2023-08-06T08:23:06;15.60;99.90
52435;DHT22;38354;52.892;6.148;2023-08-06T08:25:32;15.60;99.90
52435;DHT22;38354;52.892;6.148;2023-08-06T08:27:59;15.60;99.90
52435;DHT22;38354;52.892;6.148;2023-08-06T08:30:24;15.60;99.90
52435;DHT22;38354;52.892;6.148;2023-08-06T08:32:50;15.60;99.90
52435;DHT22;38354;52.892;6.148;2023-08-06T08:35:16;15.60;99.90
52435;DHT22;38354;52.892;6.148;2023-08-06T08:37:42;15.70;99.90
52435;DHT22;38354;52.892;6.148;2023-08-06T08:40:08;15.70;99.90
52435;DHT22;38354;52.892;6.148;2023-08-06T08:42:34;15.70;99.90
52435;DHT22;38354;52.892;6.148;2023-08-06T08:44:59;15.80;99.90
52435;DHT22;38354;52.892;6.148;2023-08-06T08:47:25;15.80;99.90
52435;DHT22;38354;52.892;6.148;2023-08-06T08:49:52;15.90;99.90
52435;DHT22;38354;52.892;6.148;2023-08-06T08:52:19;15.90;99.90
52435;DHT22;38354;52.892;6.148;2023-08-06T08:54:46;16.00;99.90
52435;DHT22;38354;52.892;6.148;2023-08-06T08:57:12;16.00;99.90
52435;DHT22;38354;52.892;6.148;2023-08-06T08:59:37;16.10;99.90
52435;DHT22;38354;52.892;6.148;2023-08-06T09:02:03;16.10;99.90
52435;DHT22;38354;52.892;6.148;2023-08-06T09:04:30;16.20;99.90
52435;DHT22;38354;52.892;6.148;2023-08-06T09:07:01;16.20;99.90
52435;DHT22;38354;52.892;6.148;2023-08-06T09:09:36;16.20;99.90
52435;DHT22;38354;52.892;6.148;2023-08-06T09:12:11;16.20;99.90
52435;DHT22;38354;52.892;6.148;2023-08-06T09:14:37;16.20;99.90
52435;DHT22;38354;52.892;6.148;2023-08-06T09:17:03;16.20;99.90
52435;DHT22;38354;52.892;6.148;2023-08-06T09:19:29;16.30;99.90
52435;DHT22;38354;52.892;6.148;2023-08-06T09:21:55;16.30;99.90
52435;DHT22;38354;52.892;6.148;2023-08-06T09:24:21;16.40;99.90
52435;DHT22;38354;52.892;6.148;2023-08-06T09:26:47;16.40;99.90
52435;DHT22;38354;52.892;6.148;2023-08-06T09:29:13;16.40;99.90
52435;DHT22;38354;52.892;6.148;2023-08-06T09:31:49;16.50;99.90
52435;DHT22;38354;52.892;6.148;2023-08-06T09:34:23;16.50;99.90
52435;DHT22;38354;52.892;6.148;2023-08-06T09:36:52;16.50;99.90
52435;DHT22;38354;52.892;6.148;2023-08-06T09:39:19;16.60;99.90
52435;DHT22;38354;52.892;6.148;2023-08-06T09:41:45;16.60;99.90
52435;DHT22;38354;52.892;6.148;2023-08-06T09:44:15;16.70;99.90
52435;DHT22;38354;52.892;6.148;2023-08-06T09:46:41;16.80;99.90
52435;DHT22;38354;52.892;6.148;2023-08-06T09:49:06;17.00;99.90
52435;DHT22;38354;52.892;6.148;2023-08-06T09:51:34;17.10;99.90
52435;DHT22;38354;52.892;6.148;2023-08-06T09:54:00;17.10;99.90
52435;DHT22;38354;52.892;6.148;2023-08-06T09:56:26;17.20;99.90
52435;DHT22;38354;52.892;6.148;2023-08-06T09:58:53;17.30;99.90
52435;DHT22;38354;52.892;6.148;2023-08-06T10:01:19;17.40;99.90
52435;DHT22;38354;52.892;6.148;2023-08-06T10:03:45;17.50;99.90
52435;DHT22;38354;52.892;6.148;2023-08-06T10:06:11;17.50;99.90
52435;DHT22;38354;52.892;6.148;2023-08-06T10:08:38;17.60;99.90
52435;DHT22;38354;52.892;6.148;2023-08-06T10:11:04;17.70;99.90
52435;DHT22;38354;52.892;6.148;2023-08-06T10:13:31;17.70;99.90
52435;DHT22;38354;52.892;6.148;2023-08-06T10:15:58;17.90;99.90
52435;DHT22;38354;52.892;6.148;2023-08-06T10:18:24;17.90;99.90
52435;DHT22;38354;52.892;6.148;2023-08-06T10:20:50;18.00;99.90
52435;DHT22;38354;52.892;6.148;2023-08-06T10:23:15;18.10;99.90
52435;DHT22;38354;52.892;6.148;2023-08-06T10:25:42;18.10;99.90
52435;DHT22;38354;52.892;6.148;2023-08-06T10:28:08;18.20;99.90
52435;DHT22;38354;52.892;6.148;2023-08-06T10:30:42;18.30;99.90
52435;DHT22;38354;52.892;6.148;2023-08-06T10:33:09;18.20;99.90
52435;DHT22;38354;52.892;6.148;2023-08-06T10:35:40;18.20;99.90
52435;DHT22;38354;52.892;6.148;2023-08-06T10:38:26;18.20;99.90
52435;DHT22;38354;52.892;6.148;2023-08-06T10:43:32;18.30;99.90
52435;DHT22;38354;52.892;6.148;2023-08-06T10:46:00;18.20;99.90
52435;DHT22;38354;52.892;6.148;2023-08-06T10:48:36;18.30;99.90
52435;DHT22;38354;52.892;6.148;2023-08-06T10:51:02;18.40;99.90
52435;DHT22;38354;52.892;6.148;2023-08-06T10:53:28;18.40;99.90
52435;DHT22;38354;52.892;6.148;2023-08-06T10:55:54;18.40;99.90
52435;DHT22;38354;52.892;6.148;2023-08-06T10:58:19;18.40;99.90
52435;DHT22;38354;52.892;6.148;2023-08-06T11:00:45;18.50;99.90
52435;DHT22;38354;52.892;6.148;2023-08-06T11:03:11;18.50;99.90
52435;DHT22;38354;52.892;6.148;2023-08-06T11:05:36;18.60;99.90
52435;DHT22;38354;52.892;6.148;2023-08-06T11:08:02;18.70;99.90
52435;DHT22;38354;52.892;6.148;2023-08-06T11:10:27;18.80;99.90
52435;DHT22;38354;52.892;6.148;2023-08-06T11:12:53;18.80;99.90
52435;DHT22;38354;52.892;6.148;2023-08-06T11:15:20;18.80;99.90
52435;DHT22;38354;52.892;6.148;2023-08-06T11:17:45;18.80;99.90
52435;DHT22;38354;52.892;6.148;2023-08-06T11:20:11;18.70;99.90
52435;DHT22;38354;52.892;6.148;2023-08-06T11:22:37;18.60;99.90
52435;DHT22;38354;52.892;6.148;2023-08-06T11:25:03;18.60;99.90
52435;DHT22;38354;52.892;6.148;2023-08-06T11:27:28;18.60;99.90
52435;DHT22;38354;52.892;6.148;2023-08-06T11:29:54;18.60;99.90
52435;DHT22;38354;52.892;6.148;2023-08-06T11:32:20;18.60;99.90
52435;DHT22;38354;52.892;6.148;2023-08-06T11:34:46;18.60;99.90
52435;DHT22;38354;52.892;6.148;2023-08-06T11:37:11;18.60;99.90
52435;DHT22;38354;52.892;6.148;2023-08-06T11:39:37;18.60;99.90
52435;DHT22;38354;52.892;6.148;2023-08-06T11:42:04;18.60;99.90
52435;DHT22;38354;52.892;6.148;2023-08-06T11:44:31;18.60;99.90
52435;DHT22;38354;52.892;6.148;2023-08-06T11:47:00;18.60;99.90
52435;DHT22;38354;52.892;6.148;2023-08-06T11:49:38;18.60;99.90
52435;DHT22;38354;52.892;6.148;2023-08-06T11:55:00;18.50;99.90
52435;DHT22;38354;52.892;6.148;2023-08-06T11:57:30;18.50;99.90
52435;DHT22;38354;52.892;6.148;2023-08-06T12:00:01;18.40;99.90
52435;DHT22;38354;52.892;6.148;2023-08-06T12:02:26;18.30;99.90
52435;DHT22;38354;52.892;6.148;2023-08-06T12:05:04;18.20;99.90
52435;DHT22;38354;52.892;6.148;2023-08-06T12:07:38;18.10;99.90
52435;DHT22;38354;52.892;6.148;2023-08-06T12:10:06;18.10;99.90
52435;DHT22;38354;52.892;6.148;2023-08-06T12:12:31;18.00;99.90
52435;DHT22;38354;52.892;6.148;2023-08-06T12:14:57;18.00;99.90
52435;DHT22;38354;52.892;6.148;2023-08-06T12:17:23;17.90;99.90
52435;DHT22;38354;52.892;6.148;2023-08-06T12:19:49;17.90;99.90
52435;DHT22;38354;52.892;6.148;2023-08-06T12:22:15;17.80;99.90
52435;DHT22;38354;52.892;6.148;2023-08-06T12:24:42;17.80;99.90
52435;DHT22;38354;52.892;6.148;2023-08-06T12:27:07;17.80;99.90
52435;DHT22;38354;52.892;6.148;2023-08-06T12:29:33;17.80;99.90
52435;DHT22;38354;52.892;6.148;2023-08-06T12:31:58;17.70;99.90
52435;DHT22;38354;52.892;6.148;2023-08-06T12:34:24;17.80;99.90
52435;DHT22;38354;52.892;6.148;2023-08-06T12:36:50;17.80;99.90
52435;DHT22;38354;52.892;6.148;2023-08-06T12:39:15;17.90;99.90
52435;DHT22;38354;52.892;6.148;2023-08-06T12:41:41;17.90;99.90
52435;DHT22;38354;52.892;6.148;2023-08-06T12:44:09;17.90;99.90
52435;DHT22;38354;52.892;6.148;2023-08-06T12:46:34;17.90;99.90
52435;DHT22;38354;52.892;6.148;2023-08-06T12:49:00;17.90;99.90
52435;DHT22;38354;52.892;6.148;2023-08-06T12:51:25;17.90;99.90
52435;DHT22;38354;52.892;6.148;2023-08-06T12:53:51;17.90;99.90
52435;DHT22;38354;52.892;6.148;2023-08-06T12:56:16;17.90;99.90
52435;DHT22;38354;52.892;6.148;2023-08-06T12:58:42;17.90;99.90
52435;DHT22;38354;52.892;6.148;2023-08-06T13:01:08;17.90;99.90
52435;DHT22;38354;52.892;6.148;2023-08-06T13:03:33;17.90;99.90
52435;DHT22;38354;52.892;6.148;2023-08-06T13:05:59;18.00;99.90
52435;DHT22;38354;52.892;6.148;2023-08-06T13:08:24;18.00;99.90
52435;DHT22;38354;52.892;6.148;2023-08-06T13:10:50;18.00;99.90
52435;DHT22;38354;52.892;6.148;2023-08-06T13:13:15;18.10;99.90
52435;DHT22;38354;52.892;6.148;2023-08-06T13:15:41;18.10;99.90
52435;DHT22;38354;52.892;6.148;2023-08-06T13:18:07;18.10;99.90
52435;DHT22;38354;52.892;6.148;2023-08-06T13:20:32;18.20;99.90
52435;DHT22;38354;52.892;6.148;2023-08-06T13:22:58;18.20;99.90
52435;DHT22;38354;52.892;6.148;2023-08-06T13:25:24;18.30;99.90
52435;DHT22;38354;52.892;6.148;2023-08-06T13:27:50;18.30;99.90
52435;DHT22;38354;52.892;6.148;2023-08-06T13:30:15;18.40;99.90
52435;DHT22;38354;52.892;6.148;2023-08-06T13:32:43;18.40;99.90
52435;DHT22;38354;52.892;6.148;2023-08-06T13:35:09;18.40;99.90
52435;DHT22;38354;52.892;6.148;2023-08-06T13:37:35;18.40;99.90
52435;DHT22;38354;52.892;6.148;2023-08-06T13:40:01;18.40;99.90
52435;DHT22;38354;52.892;6.148;2023-08-06T13:42:26;18.40;99.90
52435;DHT22;38354;52.892;6.148;2023-08-06T13:44:52;18.40;99.90
52435;DHT22;38354;52.892;6.148;2023-08-06T13:47:18;18.40;99.90
52435;DHT22;38354;52.892;6.148;2023-08-06T13:49:43;18.30;99.90
52435;DHT22;38354;52.892;6.148;2023-08-06T13:52:09;18.20;99.90
52435;DHT22;38354;52.892;6.148;2023-08-06T13:54:34;18.10;99.90
52435;DHT22;38354;52.892;6.148;2023-08-06T13:57:00;17.90;99.90
52435;DHT22;38354;52.892;6.148;2023-08-06T13:59:25;17.80;99.90
52435;DHT22;38354;52.892;6.148;2023-08-06T14:01:51;17.60;99.90
52435;DHT22;38354;52.892;6.148;2023-08-06T14:04:18;17.60;99.90
52435;DHT22;38354;52.892;6.148;2023-08-06T14:06:45;17.50;99.90
52435;DHT22;38354;52.892;6.148;2023-08-06T14:09:11;17.50;99.90
52435;DHT22;38354;52.892;6.148;2023-08-06T14:11:39;17.50;99.90
52435;DHT22;38354;52.892;6.148;2023-08-06T14:14:04;17.40;99.90
52435;DHT22;38354;52.892;6.148;2023-08-06T14:16:30;17.40;99.90
52435;DHT22;38354;52.892;6.148;2023-08-06T14:18:55;17.30;99.90
52435;DHT22;38354;52.892;6.148;2023-08-06T14:21:21;17.20;99.90
52435;DHT22;38354;52.892;6.148;2023-08-06T14:23:46;17.10;99.90
52435;DHT22;38354;52.892;6.148;2023-08-06T14:26:12;17.10;99.90
52435;DHT22;38354;52.892;6.148;2023-08-06T14:28:40;17.00;99.90
52435;DHT22;38354;52.892;6.148;2023-08-06T14:31:06;17.00;99.90
52435;DHT22;38354;52.892;6.148;2023-08-06T14:33:32;16.90;99.90
52435;DHT22;38354;52.892;6.148;2023-08-06T14:35:57;16.90;99.90
52435;DHT22;38354;52.892;6.148;2023-08-06T14:38:23;16.80;99.90
52435;DHT22;38354;52.892;6.148;2023-08-06T14:40:48;16.80;99.90
52435;DHT22;38354;52.892;6.148;2023-08-06T14:43:14;16.70;99.90
52435;DHT22;38354;52.892;6.148;2023-08-06T14:45:40;16.60;99.90
52435;DHT22;38354;52.892;6.148;2023-08-06T14:48:06;16.60;99.90
52435;DHT22;38354;52.892;6.148;2023-08-06T14:50:31;16.50;99.90
52435;DHT22;38354;52.892;6.148;2023-08-06T14:52:57;16.50;99.90
52435;DHT22;38354;52.892;6.148;2023-08-06T14:55:23;16.40;99.90
52435;DHT22;38354;52.892;6.148;2023-08-06T14:57:49;16.40;99.90
52435;DHT22;38354;52.892;6.148;2023-08-06T15:00:15;16.40;99.90
52435;DHT22;38354;52.892;6.148;2023-08-06T15:02:41;16.30;99.90
52435;DHT22;38354;52.892;6.148;2023-08-06T15:05:06;16.30;99.90
52435;DHT22;38354;52.892;6.148;2023-08-06T15:07:32;16.20;99.90
52435;DHT22;38354;52.892;6.148;2023-08-06T15:10:01;16.30;99.90
52435;DHT22;38354;52.892;6.148;2023-08-06T15:12:26;16.30;99.90
52435;DHT22;38354;52.892;6.148;2023-08-06T15:14:52;16.30;99.90
52435;DHT22;38354;52.892;6.148;2023-08-06T15:17:17;16.30;99.90
52435;DHT22;38354;52.892;6.148;2023-08-06T15:19:43;16.30;99.90
52435;DHT22;38354;52.892;6.148;2023-08-06T15:22:09;16.30;99.90
52435;DHT22;38354;52.892;6.148;2023-08-06T15:24:37;16.30;99.90
52435;DHT22;38354;52.892;6.148;2023-08-06T15:27:07;16.30;99.90
52435;DHT22;38354;52.892;6.148;2023-08-06T15:29:34;16.30;99.90
52435;DHT22;38354;52.892;6.148;2023-08-06T15:32:00;16.30;99.90
52435;DHT22;38354;52.892;6.148;2023-08-06T15:34:26;16.30;99.90
52435;DHT22;38354;52.892;6.148;2023-08-06T15:36:51;16.40;99.90
52435;DHT22;38354;52.892;6.148;2023-08-06T15:39:17;16.40;99.90
52435;DHT22;38354;52.892;6.148;2023-08-06T15:41:42;16.40;99.90
52435;DHT22;38354;52.892;6.148;2023-08-06T15:44:08;16.40;99.90
52435;DHT22;38354;52.892;6.148;2023-08-06T15:46:34;16.40;99.90
52435;DHT22;38354;52.892;6.148;2023-08-06T15:49:01;16.40;99.90
52435;DHT22;38354;52.892;6.148;2023-08-06T15:51:26;16.40;99.90
52435;DHT22;38354;52.892;6.148;2023-08-06T15:53:52;16.40;99.90
52435;DHT22;38354;52.892;6.148;2023-08-06T15:56:18;16.40;99.90
52435;DHT22;38354;52.892;6.148;2023-08-06T15:58:46;16.40;99.90
52435;DHT22;38354;52.892;6.148;2023-08-06T16:01:12;16.40;99.90
52435;DHT22;38354;52.892;6.148;2023-08-06T16:03:39;16.40;99.90
52435;DHT22;38354;52.892;6.148;2023-08-06T16:06:10;16.30;99.90
52435;DHT22;38354;52.892;6.148;2023-08-06T16:08:36;16.30;99.90
52435;DHT22;38354;52.892;6.148;2023-08-06T16:11:02;16.30;99.90
52435;DHT22;38354;52.892;6.148;2023-08-06T16:13:27;16.20;99.90
52435;DHT22;38354;52.892;6.148;2023-08-06T16:15:53;16.20;99.90
52435;DHT22;38354;52.892;6.148;2023-08-06T16:18:18;16.10;99.90
52435;DHT22;38354;52.892;6.148;2023-08-06T16:20:44;16.10;99.90
52435;DHT22;38354;52.892;6.148;2023-08-06T16:23:10;15.90;99.90
52435;DHT22;38354;52.892;6.148;2023-08-06T16:25:41;15.90;99.90
52435;DHT22;38354;52.892;6.148;2023-08-06T16:28:11;15.80;99.90
52435;DHT22;38354;52.892;6.148;2023-08-06T16:30:42;15.80;99.90
52435;DHT22;38354;52.892;6.148;2023-08-06T16:33:08;15.80;99.90
52435;DHT22;38354;52.892;6.148;2023-08-06T16:35:33;15.70;99.90
52435;DHT22;38354;52.892;6.148;2023-08-06T16:38:00;15.70;99.90
52435;DHT22;38354;52.892;6.148;2023-08-06T16:40:26;15.80;99.90
52435;DHT22;38354;52.892;6.148;2023-08-06T16:42:51;15.80;99.90
52435;DHT22;38354;52.892;6.148;2023-08-06T16:45:17;15.80;99.90
52435;DHT22;38354;52.892;6.148;2023-08-06T16:47:42;15.90;99.90
52435;DHT22;38354;52.892;6.148;2023-08-06T16:50:08;15.90;99.90
52435;DHT22;38354;52.892;6.148;2023-08-06T16:52:34;15.90;99.90
52435;DHT22;38354;52.892;6.148;2023-08-06T16:54:59;16.00;99.90
52435;DHT22;38354;52.892;6.148;2023-08-06T16:57:25;16.00;99.90
52435;DHT22;38354;52.892;6.148;2023-08-06T16:59:51;16.10;99.90
52435;DHT22;38354;52.892;6.148;2023-08-06T17:02:16;16.10;99.90
52435;DHT22;38354;52.892;6.148;2023-08-06T17:04:43;16.00;99.90
52435;DHT22;38354;52.892;6.148;2023-08-06T17:07:09;16.00;99.90
52435;DHT22;38354;52.892;6.148;2023-08-06T17:09:34;15.90;99.90
52435;DHT22;38354;52.892;6.148;2023-08-06T17:12:00;15.90;99.90
52435;DHT22;38354;52.892;6.148;2023-08-06T17:14:26;15.90;99.90
52435;DHT22;38354;52.892;6.148;2023-08-06T17:16:51;15.80;99.90
52435;DHT22;38354;52.892;6.148;2023-08-06T17:19:17;15.80;99.90
52435;DHT22;38354;52.892;6.148;2023-08-06T17:21:43;15.80;99.90
52435;DHT22;38354;52.892;6.148;2023-08-06T17:24:08;15.80;99.90
52435;DHT22;38354;52.892;6.148;2023-08-06T17:26:34;15.70;99.90
52435;DHT22;38354;52.892;6.148;2023-08-06T17:28:59;15.70;99.90
52435;DHT22;38354;52.892;6.148;2023-08-06T17:31:25;15.70;99.90
52435;DHT22;38354;52.892;6.148;2023-08-06T17:33:51;15.60;99.90
52435;DHT22;38354;52.892;6.148;2023-08-06T17:36:16;15.60;99.90
52435;DHT22;38354;52.892;6.148;2023-08-06T17:38:42;15.60;99.90
52435;DHT22;38354;52.892;6.148;2023-08-06T17:41:08;15.60;99.90
52435;DHT22;38354;52.892;6.148;2023-08-06T17:43:33;15.50;99.90
52435;DHT22;38354;52.892;6.148;2023-08-06T17:45:59;15.50;99.90
52435;DHT22;38354;52.892;6.148;2023-08-06T17:48:25;15.50;99.90
52435;DHT22;38354;52.892;6.148;2023-08-06T17:50:51;15.40;99.90
52435;DHT22;38354;52.892;6.148;2023-08-06T17:53:16;15.40;99.90
52435;DHT22;38354;52.892;6.148;2023-08-06T17:55:42;15.40;99.90
52435;DHT22;38354;52.892;6.148;2023-08-06T17:58:08;15.40;99.90
52435;DHT22;38354;52.892;6.148;2023-08-06T18:00:34;15.40;99.90
52435;DHT22;38354;52.892;6.148;2023-08-06T18:03:00;15.40;99.90
52435;DHT22;38354;52.892;6.148;2023-08-06T18:05:25;15.40;99.90
52435;DHT22;38354;52.892;6.148;2023-08-06T18:07:53;15.50;99.90
52435;DHT22;38354;52.892;6.148;2023-08-06T18:10:18;15.60;99.90
52435;DHT22;38354;52.892;6.148;2023-08-06T18:12:44;15.60;99.90
52435;DHT22;38354;52.892;6.148;2023-08-06T18:15:10;15.60;99.90
52435;DHT22;38354;52.892;6.148;2023-08-06T18:17:39;15.70;99.90
52435;DHT22;38354;52.892;6.148;2023-08-06T18:20:05;15.70;99.90
52435;DHT22;38354;52.892;6.148;2023-08-06T18:22:30;15.70;99.90
52435;DHT22;38354;52.892;6.148;2023-08-06T18:24:56;15.60;99.90
52435;DHT22;38354;52.892;6.148;2023-08-06T18:27:24;15.60;99.90
52435;DHT22;38354;52.892;6.148;2023-08-06T18:29:49;15.60;99.90
52435;DHT22;38354;52.892;6.148;2023-08-06T18:32:15;15.50;99.90
52435;DHT22;38354;52.892;6.148;2023-08-06T18:34:41;15.50;99.90
52435;DHT22;38354;52.892;6.148;2023-08-06T18:37:06;15.50;99.90
52435;DHT22;38354;52.892;6.148;2023-08-06T18:39:32;15.50;99.90
52435;DHT22;38354;52.892;6.148;2023-08-06T18:41:58;15.50;99.90
52435;DHT22;38354;52.892;6.148;2023-08-06T18:44:23;15.50;99.90
52435;DHT22;38354;52.892;6.148;2023-08-06T18:46:49;15.50;99.90
52435;DHT22;38354;52.892;6.148;2023-08-06T18:49:15;15.40;99.90
52435;DHT22;38354;52.892;6.148;2023-08-06T18:51:40;15.40;99.90
52435;DHT22;38354;52.892;6.148;2023-08-06T18:54:06;15.40;99.90
52435;DHT22;38354;52.892;6.148;2023-08-06T18:56:32;15.40;99.90
52435;DHT22;38354;52.892;6.148;2023-08-06T18:58:57;15.40;99.90
52435;DHT22;38354;52.892;6.148;2023-08-06T19:01:23;15.40;99.90
52435;DHT22;38354;52.892;6.148;2023-08-06T19:03:49;15.40;99.90
52435;DHT22;38354;52.892;6.148;2023-08-06T19:06:14;15.40;99.90
52435;DHT22;38354;52.892;6.148;2023-08-06T19:08:40;15.40;99.90
52435;DHT22;38354;52.892;6.148;2023-08-06T19:11:05;15.30;99.90
52435;DHT22;38354;52.892;6.148;2023-08-06T19:13:31;15.30;99.90
52435;DHT22;38354;52.892;6.148;2023-08-06T19:15:57;15.30;99.90
52435;DHT22;38354;52.892;6.148;2023-08-06T19:18:22;15.30;99.90
52435;DHT22;38354;52.892;6.148;2023-08-06T19:20:48;15.30;99.90
52435;DHT22;38354;52.892;6.148;2023-08-06T19:23:13;15.20;99.90
52435;DHT22;38354;52.892;6.148;2023-08-06T19:25:43;15.20;99.90
52435;DHT22;38354;52.892;6.148;2023-08-06T19:28:09;15.20;99.90
52435;DHT22;38354;52.892;6.148;2023-08-06T19:30:39;15.20;99.90